sensor_id;sensor_type;location;lat;lon;timestamp;temperature;humidity
5346;DHT22;2695;49.444;11.054;2023-06-04T00:02:01;15.80;42.90
5346;DHT22;2695;49.444;11.054;2023-06-04T00:04:30;15.70;43.10
5346;DHT22;2695;49.444;11.054;2023-06-04T00:06:59;15.50;43.30
5346;DHT22;2695;49.444;11.054;2023-06-04T00:09:27;15.50;43.70
5346;DHT22;2695;49.444;11.054;2023-06-04T00:11:55;15.40;43.90
5346;DHT22;2695;49.444;11.054;2023-06-04T00:14:23;15.40;44.00
5346;DHT22;2695;49.444;11.054;2023-06-04T00:16:51;15.40;44.20
5346;DHT22;2695;49.444;11.054;2023-06-04T00:19:19;15.30;44.20
5346;DHT22;2695;49.444;11.054;2023-06-04T00:21:49;15.30;44.40
5346;DHT22;2695;49.444;11.054;2023-06-04T00:24:17;15.20;44.30
5346;DHT22;2695;49.444;11.054;2023-06-04T00:26:45;15.20;44.40
5346;DHT22;2695;49.444;11.054;2023-06-04T00:29:13;15.20;44.50
5346;DHT22;2695;49.444;11.054;2023-06-04T00:31:42;15.10;44.50
5346;DHT22;2695;49.444;11.054;2023-06-04T00:34:10;15.00;44.60
5346;DHT22;2695;49.444;11.054;2023-06-04T00:36:39;15.00;44.90
5346;DHT22;2695;49.444;11.054;2023-06-04T00:39:09;15.00;44.90
5346;DHT22;2695;49.444;11.054;2023-06-04T00:41:37;14.90;45.00
5346;DHT22;2695;49.444;11.054;2023-06-04T00:44:05;14.90;44.90
5346;DHT22;2695;49.444;11.054;2023-06-04T00:46:34;14.90;45.00
5346;DHT22;2695;49.444;11.054;2023-06-04T00:49:04;14.80;45.00
5346;DHT22;2695;49.444;11.054;2023-06-04T00:51:33;14.80;45.30
5346;DHT22;2695;49.444;11.054;2023-06-04T00:54:04;14.70;45.30
5346;DHT22;2695;49.444;11.054;2023-06-04T00:56:37;14.70;45.50
5346;DHT22;2695;49.444;11.054;2023-06-04T00:59:06;14.70;45.60
5346;DHT22;2695;49.444;11.054;2023-06-04T01:01:46;14.70;45.70
5346;DHT22;2695;49.444;11.054;2023-06-04T01:04:22;14.70;45.70
5346;DHT22;2695;49.444;11.054;2023-06-04T01:06:53;14.70;45.80
5346;DHT22;2695;49.444;11.054;2023-06-04T01:09:24;14.70;45.80
5346;DHT22;2695;49.444;11.054;2023-06-04T01:11:53;14.60;45.90
5346;DHT22;2695;49.444;11.054;2023-06-04T01:14:24;14.60;46.00
5346;DHT22;2695;49.444;11.054;2023-06-04T01:16:56;14.60;45.90
5346;DHT22;2695;49.444;11.054;2023-06-04T01:19:57;14.60;45.90
5346;DHT22;2695;49.444;11.054;2023-06-04T01:22:35;14.60;45.90
5346;DHT22;2695;49.444;11.054;2023-06-04T01:25:09;14.60;45.90
5346;DHT22;2695;49.444;11.054;2023-06-04T01:27:39;14.60;45.80
5346;DHT22;2695;49.444;11.054;2023-06-04T01:30:10;14.50;45.70
5346;DHT22;2695;49.444;11.054;2023-06-04T01:32:39;14.50;45.60
5346;DHT22;2695;49.444;11.054;2023-06-04T01:35:08;14.50;45.80
5346;DHT22;2695;49.444;11.054;2023-06-04T01:37:36;14.40;45.70
5346;DHT22;2695;49.444;11.054;2023-06-04T01:40:05;14.40;46.00
5346;DHT22;2695;49.444;11.054;2023-06-04T01:42:34;14.50;45.80
5346;DHT22;2695;49.444;11.054;2023-06-04T01:45:05;14.50;45.50
5346;DHT22;2695;49.444;11.054;2023-06-04T01:47:33;14.50;45.60
5346;DHT22;2695;49.444;11.054;2023-06-04T01:50:01;14.50;45.60
5346;DHT22;2695;49.444;11.054;2023-06-04T01:52:30;14.50;45.60
5346;DHT22;2695;49.444;11.054;2023-06-04T01:54:58;14.50;45.60
5346;DHT22;2695;49.444;11.054;2023-06-04T01:57:26;14.50;45.50
5346;DHT22;2695;49.444;11.054;2023-06-04T01:59:54;14.40;45.50
5346;DHT22;2695;49.444;11.054;2023-06-04T02:02:23;14.40;45.50
5346;DHT22;2695;49.444;11.054;2023-06-04T02:04:52;14.40;45.70
5346;DHT22;2695;49.444;11.054;2023-06-04T02:07:20;14.40;45.70
5346;DHT22;2695;49.444;11.054;2023-06-04T02:09:48;14.30;45.70
5346;DHT22;2695;49.444;11.054;2023-06-04T02:12:16;14.30;45.70
5346;DHT22;2695;49.444;11.054;2023-06-04T02:14:44;14.30;45.90
5346;DHT22;2695;49.444;11.054;2023-06-04T02:17:13;14.30;45.90
5346;DHT22;2695;49.444;11.054;2023-06-04T02:19:45;14.30;45.90
5346;DHT22;2695;49.444;11.054;2023-06-04T02:22:17;14.20;46.10
5346;DHT22;2695;49.444;11.054;2023-06-04T02:24:45;14.20;46.20
5346;DHT22;2695;49.444;11.054;2023-06-04T02:27:14;14.20;46.40
5346;DHT22;2695;49.444;11.054;2023-06-04T02:29:43;14.20;46.60
5346;DHT22;2695;49.444;11.054;2023-06-04T02:32:11;14.10;46.50
5346;DHT22;2695;49.444;11.054;2023-06-04T02:34:39;14.10;46.50
5346;DHT22;2695;49.444;11.054;2023-06-04T02:37:09;14.10;46.50
5346;DHT22;2695;49.444;11.054;2023-06-04T02:39:37;14.10;46.40
5346;DHT22;2695;49.444;11.054;2023-06-04T02:42:06;14.10;46.50
5346;DHT22;2695;49.444;11.054;2023-06-04T02:44:34;14.10;46.40
5346;DHT22;2695;49.444;11.054;2023-06-04T02:47:02;14.10;46.60
5346;DHT22;2695;49.444;11.054;2023-06-04T02:49:30;14.00;46.80
5346;DHT22;2695;49.444;11.054;2023-06-04T02:51:58;14.00;46.90
5346;DHT22;2695;49.444;11.054;2023-06-04T02:54:27;14.00;47.00
5346;DHT22;2695;49.444;11.054;2023-06-04T02:56:55;14.00;47.10
5346;DHT22;2695;49.444;11.054;2023-06-04T02:59:23;14.00;47.10
5346;DHT22;2695;49.444;11.054;2023-06-04T03:01:52;14.00;47.20
5346;DHT22;2695;49.444;11.054;2023-06-04T03:04:20;14.00;47.30
5346;DHT22;2695;49.444;11.054;2023-06-04T03:06:48;14.00;47.40
5346;DHT22;2695;49.444;11.054;2023-06-04T03:09:24;14.00;47.20
5346;DHT22;2695;49.444;11.054;2023-06-04T03:11:53;13.90;47.10
5346;DHT22;2695;49.444;11.054;2023-06-04T03:14:21;13.90;47.30
5346;DHT22;2695;49.444;11.054;2023-06-04T03:16:50;13.80;47.00
5346;DHT22;2695;49.444;11.054;2023-06-04T03:19:19;13.80;47.40
5346;DHT22;2695;49.444;11.054;2023-06-04T03:21:47;13.80;47.30
5346;DHT22;2695;49.444;11.054;2023-06-04T03:24:18;13.80;47.50
5346;DHT22;2695;49.444;11.054;2023-06-04T03:26:46;13.80;47.70
5346;DHT22;2695;49.444;11.054;2023-06-04T03:29:16;13.80;47.70
5346;DHT22;2695;49.444;11.054;2023-06-04T03:31:44;13.80;47.50
5346;DHT22;2695;49.444;11.054;2023-06-04T03:34:13;13.90;47.50
5346;DHT22;2695;49.444;11.054;2023-06-04T03:36:41;14.00;47.80
5346;DHT22;2695;49.444;11.054;2023-06-04T03:39:09;14.00;47.80
5346;DHT22;2695;49.444;11.054;2023-06-04T03:41:37;14.50;47.60
5346;DHT22;2695;49.444;11.054;2023-06-04T03:44:05;15.10;46.10
5346;DHT22;2695;49.444;11.054;2023-06-04T03:46:34;15.70;45.20
5346;DHT22;2695;49.444;11.054;2023-06-04T03:49:02;16.40;44.10
5346;DHT22;2695;49.444;11.054;2023-06-04T03:51:31;17.00;42.80
5346;DHT22;2695;49.444;11.054;2023-06-04T03:53:59;17.50;41.50
5346;DHT22;2695;49.444;11.054;2023-06-04T03:56:28;18.10;40.70
5346;DHT22;2695;49.444;11.054;2023-06-04T03:58:57;18.60;39.90
5346;DHT22;2695;49.444;11.054;2023-06-04T04:01:25;19.10;39.00
5346;DHT22;2695;49.444;11.054;2023-06-04T04:03:54;19.50;38.60
5346;DHT22;2695;49.444;11.054;2023-06-04T04:06:23;20.10;38.00
5346;DHT22;2695;49.444;11.054;2023-06-04T04:08:51;20.70;37.20
5346;DHT22;2695;49.444;11.054;2023-06-04T04:11:20;21.20;36.50
5346;DHT22;2695;49.444;11.054;2023-06-04T04:13:48;21.70;35.60
5346;DHT22;2695;49.444;11.054;2023-06-04T04:16:16;22.30;35.40
5346;DHT22;2695;49.444;11.054;2023-06-04T04:18:44;22.80;34.70
5346;DHT22;2695;49.444;11.054;2023-06-04T04:21:14;23.40;34.20
5346;DHT22;2695;49.444;11.054;2023-06-04T04:23:44;23.90;32.90
5346;DHT22;2695;49.444;11.054;2023-06-04T04:26:12;23.30;31.90
5346;DHT22;2695;49.444;11.054;2023-06-04T04:28:43;23.40;32.70
5346;DHT22;2695;49.444;11.054;2023-06-04T04:31:12;23.60;31.90
5346;DHT22;2695;49.444;11.054;2023-06-04T04:33:41;24.30;32.20
5346;DHT22;2695;49.444;11.054;2023-06-04T04:36:10;24.50;31.10
5346;DHT22;2695;49.444;11.054;2023-06-04T04:38:41;24.40;31.20
5346;DHT22;2695;49.444;11.054;2023-06-04T04:41:09;24.70;30.80
5346;DHT22;2695;49.444;11.054;2023-06-04T04:43:38;24.90;30.20
5346;DHT22;2695;49.444;11.054;2023-06-04T04:46:07;24.80;30.60
5346;DHT22;2695;49.444;11.054;2023-06-04T04:48:36;24.80;30.20
5346;DHT22;2695;49.444;11.054;2023-06-04T04:51:05;25.50;30.30
5346;DHT22;2695;49.444;11.054;2023-06-04T04:53:34;25.40;29.40
5346;DHT22;2695;49.444;11.054;2023-06-04T04:56:04;24.80;30.00
5346;DHT22;2695;49.444;11.054;2023-06-04T04:58:33;24.80;30.20
5346;DHT22;2695;49.444;11.054;2023-06-04T05:01:01;25.90;30.00
5346;DHT22;2695;49.444;11.054;2023-06-04T05:03:29;26.00;28.80
5346;DHT22;2695;49.444;11.054;2023-06-04T05:05:57;25.70;29.10
5346;DHT22;2695;49.444;11.054;2023-06-04T05:08:25;25.80;29.30
5346;DHT22;2695;49.444;11.054;2023-06-04T05:10:53;25.30;29.60
5346;DHT22;2695;49.444;11.054;2023-06-04T05:13:23;25.20;30.20
5346;DHT22;2695;49.444;11.054;2023-06-04T05:15:51;26.30;29.60
5346;DHT22;2695;49.444;11.054;2023-06-04T05:18:20;27.40;28.20
5346;DHT22;2695;49.444;11.054;2023-06-04T05:20:48;26.80;28.30
5346;DHT22;2695;49.444;11.054;2023-06-04T05:23:21;26.60;28.40
5346;DHT22;2695;49.444;11.054;2023-06-04T05:25:50;26.90;28.70
5346;DHT22;2695;49.444;11.054;2023-06-04T05:28:18;27.50;28.50
5346;DHT22;2695;49.444;11.054;2023-06-04T05:30:48;28.20;27.80
5346;DHT22;2695;49.444;11.054;2023-06-04T05:33:16;28.00;27.80
5346;DHT22;2695;49.444;11.054;2023-06-04T05:35:46;29.00;27.50
5346;DHT22;2695;49.444;11.054;2023-06-04T05:38:14;28.70;26.90
5346;DHT22;2695;49.444;11.054;2023-06-04T05:40:45;28.30;27.70
5346;DHT22;2695;49.444;11.054;2023-06-04T05:43:13;28.20;27.60
5346;DHT22;2695;49.444;11.054;2023-06-04T05:45:41;28.90;27.40
5346;DHT22;2695;49.444;11.054;2023-06-04T05:48:10;29.50;27.20
5346;DHT22;2695;49.444;11.054;2023-06-04T05:50:38;29.40;26.60
5346;DHT22;2695;49.444;11.054;2023-06-04T05:53:06;29.40;26.90
5346;DHT22;2695;49.444;11.054;2023-06-04T05:55:34;30.50;26.30
5346;DHT22;2695;49.444;11.054;2023-06-04T05:58:05;31.00;26.00
5346;DHT22;2695;49.444;11.054;2023-06-04T06:00:33;32.10;25.30
5346;DHT22;2695;49.444;11.054;2023-06-04T06:03:01;32.40;24.90
5346;DHT22;2695;49.444;11.054;2023-06-04T06:05:31;32.20;24.50
5346;DHT22;2695;49.444;11.054;2023-06-04T06:07:59;31.80;25.00
5346;DHT22;2695;49.444;11.054;2023-06-04T06:10:28;32.00;25.20
5346;DHT22;2695;49.444;11.054;2023-06-04T06:12:56;32.80;24.80
5346;DHT22;2695;49.444;11.054;2023-06-04T06:15:25;33.00;24.30
5346;DHT22;2695;49.444;11.054;2023-06-04T06:17:53;32.80;24.30
5346;DHT22;2695;49.444;11.054;2023-06-04T06:20:21;32.80;24.60
5346;DHT22;2695;49.444;11.054;2023-06-04T06:22:54;34.00;24.00
5346;DHT22;2695;49.444;11.054;2023-06-04T06:25:22;34.50;23.80
5346;DHT22;2695;49.444;11.054;2023-06-04T06:27:50;35.40;23.00
5346;DHT22;2695;49.444;11.054;2023-06-04T06:30:18;36.00;22.50
5346;DHT22;2695;49.444;11.054;2023-06-04T06:32:47;36.20;22.20
5346;DHT22;2695;49.444;11.054;2023-06-04T06:35:18;35.80;22.10
5346;DHT22;2695;49.444;11.054;2023-06-04T06:37:46;36.30;22.10
5346;DHT22;2695;49.444;11.054;2023-06-04T06:40:16;36.60;21.70
5346;DHT22;2695;49.444;11.054;2023-06-04T06:42:48;36.70;21.50
5346;DHT22;2695;49.444;11.054;2023-06-04T06:45:17;36.00;22.00
5346;DHT22;2695;49.444;11.054;2023-06-04T06:47:45;35.90;22.30
5346;DHT22;2695;49.444;11.054;2023-06-04T06:50:13;35.90;21.90
5346;DHT22;2695;49.444;11.054;2023-06-04T06:52:42;36.90;21.80
5346;DHT22;2695;49.444;11.054;2023-06-04T06:55:10;37.10;21.40
5346;DHT22;2695;49.444;11.054;2023-06-04T06:57:39;37.90;21.40
5346;DHT22;2695;49.444;11.054;2023-06-04T07:00:09;37.50;21.20
5346;DHT22;2695;49.444;11.054;2023-06-04T07:02:37;37.20;21.50
5346;DHT22;2695;49.444;11.054;2023-06-04T07:05:05;37.50;21.40
5346;DHT22;2695;49.444;11.054;2023-06-04T07:07:33;37.40;21.50
5346;DHT22;2695;49.444;11.054;2023-06-04T07:10:02;37.50;21.30
5346;DHT22;2695;49.444;11.054;2023-06-04T07:12:30;37.10;21.70
5346;DHT22;2695;49.444;11.054;2023-06-04T07:15:00;37.50;21.40
5346;DHT22;2695;49.444;11.054;2023-06-04T07:17:28;37.60;21.40
5346;DHT22;2695;49.444;11.054;2023-06-04T07:19:57;37.80;21.20
5346;DHT22;2695;49.444;11.054;2023-06-04T07:22:25;38.10;21.30
5346;DHT22;2695;49.444;11.054;2023-06-04T07:24:53;37.80;21.40
5346;DHT22;2695;49.444;11.054;2023-06-04T07:27:21;38.20;21.10
5346;DHT22;2695;49.444;11.054;2023-06-04T07:29:49;38.00;21.10
5346;DHT22;2695;49.444;11.054;2023-06-04T07:32:19;38.10;20.80
5346;DHT22;2695;49.444;11.054;2023-06-04T07:34:47;36.90;21.30
5346;DHT22;2695;49.444;11.054;2023-06-04T07:37:15;36.50;22.20
5346;DHT22;2695;49.444;11.054;2023-06-04T07:39:43;36.70;22.00
5346;DHT22;2695;49.444;11.054;2023-06-04T07:42:11;36.50;22.10
5346;DHT22;2695;49.444;11.054;2023-06-04T07:44:41;36.00;22.60
5346;DHT22;2695;49.444;11.054;2023-06-04T07:47:09;36.40;22.40
5346;DHT22;2695;49.444;11.054;2023-06-04T07:49:38;36.60;22.20
5346;DHT22;2695;49.444;11.054;2023-06-04T07:52:26;36.40;22.50
5346;DHT22;2695;49.444;11.054;2023-06-04T07:54:54;35.90;23.00
5346;DHT22;2695;49.444;11.054;2023-06-04T07:57:23;36.10;22.50
5346;DHT22;2695;49.444;11.054;2023-06-04T07:59:51;36.30;22.50
5346;DHT22;2695;49.444;11.054;2023-06-04T08:02:19;36.40;22.50
5346;DHT22;2695;49.444;11.054;2023-06-04T08:04:49;36.80;22.50
5346;DHT22;2695;49.444;11.054;2023-06-04T08:07:17;37.10;22.00
5346;DHT22;2695;49.444;11.054;2023-06-04T08:09:46;37.50;22.00
5346;DHT22;2695;49.444;11.054;2023-06-04T08:12:16;38.50;21.70
5346;DHT22;2695;49.444;11.054;2023-06-04T08:14:44;39.10;21.20
5346;DHT22;2695;49.444;11.054;2023-06-04T08:17:12;39.60;20.80
5346;DHT22;2695;49.444;11.054;2023-06-04T08:19:40;39.80;20.70
5346;DHT22;2695;49.444;11.054;2023-06-04T08:22:09;40.20;20.60
5346;DHT22;2695;49.444;11.054;2023-06-04T08:24:38;40.40;20.40
5346;DHT22;2695;49.444;11.054;2023-06-04T08:27:07;40.40;20.40
5346;DHT22;2695;49.444;11.054;2023-06-04T08:29:35;40.40;20.40
5346;DHT22;2695;49.444;11.054;2023-06-04T08:32:04;40.70;20.30
5346;DHT22;2695;49.444;11.054;2023-06-04T08:34:34;41.10;20.00
5346;DHT22;2695;49.444;11.054;2023-06-04T08:37:02;41.90;19.90
5346;DHT22;2695;49.444;11.054;2023-06-04T08:39:32;42.50;19.40
5346;DHT22;2695;49.444;11.054;2023-06-04T08:42:01;42.90;19.10
5346;DHT22;2695;49.444;11.054;2023-06-04T08:44:31;42.70;18.90
5346;DHT22;2695;49.444;11.054;2023-06-04T08:47:03;42.60;18.60
5346;DHT22;2695;49.444;11.054;2023-06-04T08:49:34;42.60;18.80
5346;DHT22;2695;49.444;11.054;2023-06-04T08:52:04;42.80;18.80
5346;DHT22;2695;49.444;11.054;2023-06-04T08:54:35;42.80;19.00
5346;DHT22;2695;49.444;11.054;2023-06-04T08:57:04;43.00;18.30
5346;DHT22;2695;49.444;11.054;2023-06-04T08:59:32;43.10;18.20
5346;DHT22;2695;49.444;11.054;2023-06-04T09:02:01;42.90;17.90
5346;DHT22;2695;49.444;11.054;2023-06-04T09:04:30;42.70;18.00
5346;DHT22;2695;49.444;11.054;2023-06-04T09:07:01;42.90;18.10
5346;DHT22;2695;49.444;11.054;2023-06-04T09:09:32;42.90;18.10
5346;DHT22;2695;49.444;11.054;2023-06-04T09:12:07;42.50;17.90
5346;DHT22;2695;49.444;11.054;2023-06-04T09:14:36;42.00;17.90
5346;DHT22;2695;49.444;11.054;2023-06-04T09:17:04;40.90;18.30
5346;DHT22;2695;49.444;11.054;2023-06-04T09:19:32;41.00;18.80
5346;DHT22;2695;49.444;11.054;2023-06-04T09:22:01;41.40;18.60
5346;DHT22;2695;49.444;11.054;2023-06-04T09:24:39;42.00;18.40
5346;DHT22;2695;49.444;11.054;2023-06-04T09:27:13;41.80;18.10
5346;DHT22;2695;49.444;11.054;2023-06-04T09:29:49;42.00;18.20
5346;DHT22;2695;49.444;11.054;2023-06-04T09:32:22;42.20;18.20
5346;DHT22;2695;49.444;11.054;2023-06-04T09:34:50;42.60;18.00
5346;DHT22;2695;49.444;11.054;2023-06-04T09:37:20;42.60;17.90
5346;DHT22;2695;49.444;11.054;2023-06-04T09:39:53;42.70;17.90
5346;DHT22;2695;49.444;11.054;2023-06-04T09:42:23;42.70;18.00
5346;DHT22;2695;49.444;11.054;2023-06-04T09:44:52;42.80;18.00
5346;DHT22;2695;49.444;11.054;2023-06-04T09:47:20;42.00;18.30
5346;DHT22;2695;49.444;11.054;2023-06-04T09:49:49;41.00;18.90
5346;DHT22;2695;49.444;11.054;2023-06-04T09:52:19;40.40;19.10
5346;DHT22;2695;49.444;11.054;2023-06-04T09:54:50;40.40;19.30
5346;DHT22;2695;49.444;11.054;2023-06-04T09:57:19;40.90;19.10
5346;DHT22;2695;49.444;11.054;2023-06-04T09:59:50;41.40;18.90
5346;DHT22;2695;49.444;11.054;2023-06-04T10:02:20;42.20;18.20
5346;DHT22;2695;49.444;11.054;2023-06-04T10:04:52;42.70;17.90
5346;DHT22;2695;49.444;11.054;2023-06-04T10:07:22;43.10;17.90
5346;DHT22;2695;49.444;11.054;2023-06-04T10:09:52;43.50;17.60
5346;DHT22;2695;49.444;11.054;2023-06-04T10:12:25;43.70;17.00
5346;DHT22;2695;49.444;11.054;2023-06-04T10:14:59;43.70;17.10
5346;DHT22;2695;49.444;11.054;2023-06-04T10:17:29;43.30;17.50
5346;DHT22;2695;49.444;11.054;2023-06-04T10:20:00;42.90;17.50
5346;DHT22;2695;49.444;11.054;2023-06-04T10:22:30;42.90;17.30
5346;DHT22;2695;49.444;11.054;2023-06-04T10:24:59;42.70;17.60
5346;DHT22;2695;49.444;11.054;2023-06-04T10:27:28;42.00;18.20
5346;DHT22;2695;49.444;11.054;2023-06-04T10:29:59;41.00;18.30
5346;DHT22;2695;49.444;11.054;2023-06-04T10:32:28;40.30;18.60
5346;DHT22;2695;49.444;11.054;2023-06-04T10:34:57;40.00;18.60
5346;DHT22;2695;49.444;11.054;2023-06-04T10:37:26;39.90;18.70
5346;DHT22;2695;49.444;11.054;2023-06-04T10:39:57;40.10;18.70
5346;DHT22;2695;49.444;11.054;2023-06-04T10:42:25;40.10;18.20
5346;DHT22;2695;49.444;11.054;2023-06-04T10:44:55;39.70;18.30
5346;DHT22;2695;49.444;11.054;2023-06-04T10:47:26;39.70;18.80
5346;DHT22;2695;49.444;11.054;2023-06-04T10:50:07;39.80;18.60
5346;DHT22;2695;49.444;11.054;2023-06-04T10:52:37;39.00;18.90
5346;DHT22;2695;49.444;11.054;2023-06-04T10:55:08;38.30;19.30
5346;DHT22;2695;49.444;11.054;2023-06-04T10:57:36;37.80;19.80
5346;DHT22;2695;49.444;11.054;2023-06-04T11:00:05;37.70;19.90
5346;DHT22;2695;49.444;11.054;2023-06-04T11:02:50;37.90;20.00
5346;DHT22;2695;49.444;11.054;2023-06-04T11:05:18;38.10;20.00
5346;DHT22;2695;49.444;11.054;2023-06-04T11:07:48;38.50;19.60
5346;DHT22;2695;49.444;11.054;2023-06-04T11:10:17;38.30;19.10
5346;DHT22;2695;49.444;11.054;2023-06-04T11:12:46;38.20;19.40
5346;DHT22;2695;49.444;11.054;2023-06-04T11:15:15;37.80;19.40
5346;DHT22;2695;49.444;11.054;2023-06-04T11:17:52;37.20;19.60
5346;DHT22;2695;49.444;11.054;2023-06-04T11:20:22;36.70;19.60
5346;DHT22;2695;49.444;11.054;2023-06-04T11:22:52;36.20;20.00
5346;DHT22;2695;49.444;11.054;2023-06-04T11:25:20;35.70;20.60
5346;DHT22;2695;49.444;11.054;2023-06-04T11:27:49;35.70;20.30
5346;DHT22;2695;49.444;11.054;2023-06-04T11:30:18;35.90;20.40
5346;DHT22;2695;49.444;11.054;2023-06-04T11:32:47;35.90;20.40
5346;DHT22;2695;49.444;11.054;2023-06-04T11:35:16;35.90;20.60
5346;DHT22;2695;49.444;11.054;2023-06-04T11:37:53;35.60;20.20
5346;DHT22;2695;49.444;11.054;2023-06-04T11:40:22;34.70;20.90
5346;DHT22;2695;49.444;11.054;2023-06-04T11:42:51;34.00;21.30
5346;DHT22;2695;49.444;11.054;2023-06-04T11:45:21;33.30;22.10
5346;DHT22;2695;49.444;11.054;2023-06-04T11:47:51;33.20;22.50
5346;DHT22;2695;49.444;11.054;2023-06-04T11:50:22;33.10;22.40
5346;DHT22;2695;49.444;11.054;2023-06-04T11:52:52;33.10;22.80
5346;DHT22;2695;49.444;11.054;2023-06-04T11:55:25;32.80;23.30
5346;DHT22;2695;49.444;11.054;2023-06-04T11:57:54;32.60;24.00
5346;DHT22;2695;49.444;11.054;2023-06-04T12:00:26;32.70;23.60
5346;DHT22;2695;49.444;11.054;2023-06-04T12:02:56;32.70;23.90
5346;DHT22;2695;49.444;11.054;2023-06-04T12:05:31;32.50;23.80
5346;DHT22;2695;49.444;11.054;2023-06-04T12:08:06;32.30;23.60
5346;DHT22;2695;49.444;11.054;2023-06-04T12:10:40;32.10;23.40
5346;DHT22;2695;49.444;11.054;2023-06-04T12:13:09;32.00;23.40
5346;DHT22;2695;49.444;11.054;2023-06-04T12:15:38;31.40;24.30
5346;DHT22;2695;49.444;11.054;2023-06-04T12:18:06;30.60;24.60
5346;DHT22;2695;49.444;11.054;2023-06-04T12:20:39;29.90;25.50
5346;DHT22;2695;49.444;11.054;2023-06-04T12:23:08;29.30;25.10
5346;DHT22;2695;49.444;11.054;2023-06-04T12:25:36;29.10;25.60
5346;DHT22;2695;49.444;11.054;2023-06-04T12:28:06;28.90;26.00
5346;DHT22;2695;49.444;11.054;2023-06-04T12:30:37;28.70;25.80
5346;DHT22;2695;49.444;11.054;2023-06-04T12:33:06;28.60;25.60
5346;DHT22;2695;49.444;11.054;2023-06-04T12:35:34;28.40;25.50
5346;DHT22;2695;49.444;11.054;2023-06-04T12:38:04;27.80;25.80
5346;DHT22;2695;49.444;11.054;2023-06-04T12:40:36;27.40;26.10
5346;DHT22;2695;49.444;11.054;2023-06-04T12:43:05;27.10;26.60
5346;DHT22;2695;49.444;11.054;2023-06-04T12:45:33;27.00;26.80
5346;DHT22;2695;49.444;11.054;2023-06-04T12:48:02;27.00;26.70
5346;DHT22;2695;49.444;11.054;2023-06-04T12:50:30;27.00;26.70
5346;DHT22;2695;49.444;11.054;2023-06-04T12:52:58;27.00;27.00
5346;DHT22;2695;49.444;11.054;2023-06-04T12:55:27;26.90;27.10
5346;DHT22;2695;49.444;11.054;2023-06-04T12:57:55;26.80;27.00
5346;DHT22;2695;49.444;11.054;2023-06-04T13:00:24;26.90;27.60
5346;DHT22;2695;49.444;11.054;2023-06-04T13:02:52;26.80;27.80
5346;DHT22;2695;49.444;11.054;2023-06-04T13:05:20;26.60;26.50
5346;DHT22;2695;49.444;11.054;2023-06-04T13:07:48;26.40;26.80
5346;DHT22;2695;49.444;11.054;2023-06-04T13:10:16;26.30;26.80
5346;DHT22;2695;49.444;11.054;2023-06-04T13:12:46;26.30;25.50
5346;DHT22;2695;49.444;11.054;2023-06-04T13:15:14;26.30;25.30
5346;DHT22;2695;49.444;11.054;2023-06-04T13:17:42;26.20;26.40
5346;DHT22;2695;49.444;11.054;2023-06-04T13:20:11;26.20;26.60
5346;DHT22;2695;49.444;11.054;2023-06-04T13:22:39;26.20;27.60
5346;DHT22;2695;49.444;11.054;2023-06-04T13:25:10;26.30;28.40
5346;DHT22;2695;49.444;11.054;2023-06-04T13:27:40;26.40;28.70
5346;DHT22;2695;49.444;11.054;2023-06-04T13:30:10;26.50;27.30
5346;DHT22;2695;49.444;11.054;2023-06-04T13:32:39;26.50;27.40
5346;DHT22;2695;49.444;11.054;2023-06-04T13:35:07;26.60;27.50
5346;DHT22;2695;49.444;11.054;2023-06-04T13:37:36;26.50;28.90
5346;DHT22;2695;49.444;11.054;2023-06-04T13:40:05;26.30;28.70
5346;DHT22;2695;49.444;11.054;2023-06-04T13:42:33;26.30;28.60
5346;DHT22;2695;49.444;11.054;2023-06-04T13:45:01;26.30;28.50
5346;DHT22;2695;49.444;11.054;2023-06-04T13:47:31;26.40;29.10
5346;DHT22;2695;49.444;11.054;2023-06-04T13:49:59;26.30;29.40
5346;DHT22;2695;49.444;11.054;2023-06-04T13:52:27;26.20;29.30
5346;DHT22;2695;49.444;11.054;2023-06-04T13:54:56;26.00;29.60
5346;DHT22;2695;49.444;11.054;2023-06-04T13:57:25;26.00;30.00
5346;DHT22;2695;49.444;11.054;2023-06-04T13:59:53;26.00;30.70
5346;DHT22;2695;49.444;11.054;2023-06-04T14:02:22;26.00;29.70
5346;DHT22;2695;49.444;11.054;2023-06-04T14:04:53;25.90;30.00
5346;DHT22;2695;49.444;11.054;2023-06-04T14:07:22;25.80;31.10
5346;DHT22;2695;49.444;11.054;2023-06-04T14:09:50;25.80;30.40
5346;DHT22;2695;49.444;11.054;2023-06-04T14:12:21;25.90;30.70
5346;DHT22;2695;49.444;11.054;2023-06-04T14:14:50;26.00;30.70
5346;DHT22;2695;49.444;11.054;2023-06-04T14:17:18;26.10;30.00
5346;DHT22;2695;49.444;11.054;2023-06-04T14:19:47;26.30;29.40
5346;DHT22;2695;49.444;11.054;2023-06-04T14:22:16;26.30;30.00
5346;DHT22;2695;49.444;11.054;2023-06-04T14:24:45;26.30;30.40
5346;DHT22;2695;49.444;11.054;2023-06-04T14:27:13;26.30;30.60
5346;DHT22;2695;49.444;11.054;2023-06-04T14:29:42;26.20;30.00
5346;DHT22;2695;49.444;11.054;2023-06-04T14:32:10;25.90;29.90
5346;DHT22;2695;49.444;11.054;2023-06-04T14:34:38;25.70;30.30
5346;DHT22;2695;49.444;11.054;2023-06-04T14:37:06;25.60;30.40
5346;DHT22;2695;49.444;11.054;2023-06-04T14:39:36;25.60;30.10
5346;DHT22;2695;49.444;11.054;2023-06-04T14:42:04;25.70;30.40
5346;DHT22;2695;49.444;11.054;2023-06-04T14:44:33;25.70;29.90
5346;DHT22;2695;49.444;11.054;2023-06-04T14:47:01;25.80;30.00
5346;DHT22;2695;49.444;11.054;2023-06-04T14:49:29;25.90;30.20
5346;DHT22;2695;49.444;11.054;2023-06-04T14:51:57;26.00;29.70
5346;DHT22;2695;49.444;11.054;2023-06-04T14:54:25;25.80;29.20
5346;DHT22;2695;49.444;11.054;2023-06-04T14:56:55;25.70;29.60
5346;DHT22;2695;49.444;11.054;2023-06-04T14:59:23;25.50;29.30
5346;DHT22;2695;49.444;11.054;2023-06-04T15:01:52;25.40;29.60
5346;DHT22;2695;49.444;11.054;2023-06-04T15:04:21;25.30;29.60
5346;DHT22;2695;49.444;11.054;2023-06-04T15:06:49;25.30;29.90
5346;DHT22;2695;49.444;11.054;2023-06-04T15:09:17;25.20;29.40
5346;DHT22;2695;49.444;11.054;2023-06-04T15:11:46;25.20;29.60
5346;DHT22;2695;49.444;11.054;2023-06-04T15:14:15;25.20;29.70
5346;DHT22;2695;49.444;11.054;2023-06-04T15:16:43;25.10;29.80
5346;DHT22;2695;49.444;11.054;2023-06-04T15:19:12;25.10;30.20
5346;DHT22;2695;49.444;11.054;2023-06-04T15:21:40;25.20;29.80
5346;DHT22;2695;49.444;11.054;2023-06-04T15:24:10;25.20;30.00
5346;DHT22;2695;49.444;11.054;2023-06-04T15:26:38;25.20;30.00
5346;DHT22;2695;49.444;11.054;2023-06-04T15:29:07;25.40;29.70
5346;DHT22;2695;49.444;11.054;2023-06-04T15:31:37;25.30;29.70
5346;DHT22;2695;49.444;11.054;2023-06-04T15:34:05;25.20;29.40
5346;DHT22;2695;49.444;11.054;2023-06-04T15:36:34;25.20;29.50
5346;DHT22;2695;49.444;11.054;2023-06-04T15:39:04;25.20;29.40
5346;DHT22;2695;49.444;11.054;2023-06-04T15:41:32;25.30;30.10
5346;DHT22;2695;49.444;11.054;2023-06-04T15:44:01;25.40;29.50
5346;DHT22;2695;49.444;11.054;2023-06-04T15:46:33;25.40;29.80
5346;DHT22;2695;49.444;11.054;2023-06-04T15:49:05;25.50;30.00
5346;DHT22;2695;49.444;11.054;2023-06-04T15:51:35;25.50;30.40
5346;DHT22;2695;49.444;11.054;2023-06-04T15:54:03;25.40;29.50
5346;DHT22;2695;49.444;11.054;2023-06-04T15:56:33;25.30;29.90
5346;DHT22;2695;49.444;11.054;2023-06-04T15:59:02;25.30;30.20